Time;durP1;ratioP1;P1;durP2;ratioP2;P2;SDS_P1;SDS_P2;PMS_P1;PMS_P2;Temp;Humidity;BMP_temperature;BMP_pressure;BME280_temperature;BME280_humidity;BME280_pressure;Samples;Min_cycle;Max_cycle;Signal;HPM_P1;HPM_P2
2022/06/22 00:00:23;;;;;;;1.33;1.20;;;12.80;90.60;12.80;100363.00;;;;4984360;27;87762;-65
2022/06/22 00:02:52;;;;;;;1.27;1.17;;;12.80;91.00;12.70;100361.00;;;;4993947;28;88641;-65
2022/06/22 00:05:24;;;;;;;7.47;1.77;;;12.70;91.30;12.70;100364.00;;;;4981254;28;107886;-65
2022/06/22 00:07:58;;;;;;;2.43;1.43;;;12.70;91.70;12.60;100360.00;;;;4986887;28;102688;-66
2022/06/22 00:10:37;;;;;;;1.80;1.70;;;12.60;92.10;12.50;100376.00;;;;5001870;27;87127;-65
2022/06/22 00:13:14;;;;;;;1.83;1.37;;;12.50;92.40;12.50;100371.00;;;;5005599;27;88406;-65
2022/06/22 00:15:53;;;;;;;1.40;1.10;;;12.50;92.60;12.50;100375.00;;;;4994317;27;87752;-65
2022/06/22 00:18:43;;;;;;;1.20;0.93;;;12.50;92.90;12.40;100384.00;;;;4977107;28;88741;-65
2022/06/22 00:21:23;;;;;;;1.33;1.23;;;12.50;93.10;12.40;100370.00;;;;4991844;27;87801;-65
2022/06/22 00:23:57;;;;;;;1.37;1.20;;;12.40;93.40;12.40;100378.00;;;;4994058;28;94800;-65
2022/06/22 00:26:23;;;;;;;1.80;1.63;;;12.40;93.60;12.40;100379.00;;;;5010692;27;88496;-65
2022/06/22 00:29:03;;;;;;;2.13;1.60;;;12.40;93.90;12.30;100369.00;;;;5007253;27;111139;-65
2022/06/22 00:31:44;;;;;;;1.50;1.03;;;12.40;94.30;12.30;100370.00;;;;5016346;27;88978;-66
2022/06/22 00:34:10;;;;;;;3.07;1.50;;;12.30;94.70;12.30;100365.00;;;;4977789;28;111087;-65
2022/06/22 00:36:46;;;;;;;4.63;1.60;;;12.30;94.80;12.20;100350.00;;;;5015109;27;117773;-65
2022/06/22 00:39:23;;;;;;;1.13;0.90;;;12.20;95.00;12.20;100355.00;;;;5010164;27;88366;-65
2022/06/22 00:42:18;;;;;;;1.03;0.93;;;12.20;95.30;12.20;100352.00;;;;4994622;28;87564;-65
2022/06/22 00:44:57;;;;;;;1.70;1.60;;;12.20;95.50;12.20;100350.00;;;;5014759;27;89296;-65
2022/06/22 00:48:05;;;;;;;2.87;1.30;;;12.20;95.70;12.10;100345.00;;;;4997448;27;100291;-65
2022/06/22 00:50:46;;;;;;;1.23;1.13;;;12.20;96.10;12.10;100345.00;;;;4990137;28;87748;-65
2022/06/22 00:53:54;;;;;;;1.30;1.20;;;12.20;96.50;12.00;100343.00;;;;4984247;28;95583;-65
2022/06/22 00:56:38;;;;;;;0.93;0.77;;;12.10;96.70;12.00;100338.00;;;;4963071;28;87775;-65
2022/06/22 00:59:26;;;;;;;1.43;1.33;;;12.10;97.10;12.00;100342.00;;;;5015176;27;87851;-64
2022/06/22 01:01:59;;;;;;;1.67;1.30;;;12.00;97.50;12.00;100343.00;;;;5016140;27;87778;-65
2022/06/22 01:04:52;;;;;;;1.43;1.23;;;12.10;97.80;11.90;100340.00;;;;4961592;28;87183;-65
2022/06/22 01:08:10;;;;;;;3.67;1.43;;;12.00;98.50;11.70;100335.00;;;;4997257;27;106911;-65
2022/06/22 01:10:59;;;;;;;2.60;1.93;;;11.80;99.00;11.70;100326.00;;;;4974885;27;88247;-65
2022/06/22 01:13:40;;;;;;;1.63;1.50;;;11.70;99.50;11.60;100318.00;;;;4987305;27;101493;-65
2022/06/22 01:16:18;;;;;;;3.07;1.53;;;11.70;99.90;11.60;100311.00;;;;4979368;27;87813;-65
2022/06/22 01:18:56;;;;;;;2.07;1.80;;;11.60;99.90;11.50;100306.00;;;;4976922;28;108041;-65
2022/06/22 01:21:44;;;;;;;2.10;1.60;;;11.60;99.90;11.40;100306.00;;;;4988833;27;88708;-65
2022/06/22 01:24:24;;;;;;;1.57;1.30;;;11.50;99.90;11.30;100312.00;;;;4973333;28;87906;-65
2022/06/22 01:27:34;;;;;;;2.87;1.73;;;11.40;99.90;11.20;100304.00;;;;4976937;28;99765;-65
2022/06/22 01:30:23;;;;;;;1.47;1.13;;;11.30;99.90;11.20;100304.00;;;;4977129;27;88676;-65
2022/06/22 01:32:50;;;;;;;1.20;1.10;;;11.30;99.90;11.20;100295.00;;;;4997146;27;87725;-65
2022/06/22 01:35:32;;;;;;;1.50;1.07;;;11.20;99.90;11.10;100297.00;;;;5003065;27;110230;-65
2022/06/22 01:37:58;;;;;;;1.53;1.43;;;11.10;99.90;11.00;100286.00;;;;4997994;27;92987;-65
2022/06/22 01:40:45;;;;;;;1.77;1.30;;;11.00;99.90;10.90;100286.00;;;;4989885;28;88883;-65
2022/06/22 01:43:39;;;;;;;1.70;1.50;;;11.00;99.90;10.80;100292.00;;;;4995220;27;88628;-65
2022/06/22 01:46:48;;;;;;;1.97;1.80;;;10.90;99.90;10.80;100279.00;;;;4998358;27;87881;-65
2022/06/22 01:49:23;;;;;;;1.43;1.27;;;10.90;99.90;10.90;100281.00;;;;4977303;27;87603;-65
2022/06/22 01:51:55;;;;;;;1.73;1.60;;;10.90;99.90;10.90;100279.00;;;;4998795;27;87965;-65
2022/06/22 01:54:32;;;;;;;1.70;1.30;;;10.90;99.90;10.80;100272.00;;;;4999020;27;103881;-65
2022/06/22 01:57:11;;;;;;;1.70;1.30;;;10.90;99.90;10.80;100278.00;;;;4996241;27;100118;-65
2022/06/22 01:59:51;;;;;;;2.33;1.13;;;10.80;99.90;10.80;100278.00;;;;4999931;27;86942;-65
2022/06/22 02:02:28;;;;;;;1.63;1.53;;;10.80;99.90;10.80;100283.00;;;;5014465;27;88060;-66
2022/06/22 02:05:19;;;;;;;1.43;1.33;;;10.80;99.90;10.70;100282.00;;;;4998961;27;87703;-66
2022/06/22 02:08:02;;;;;;;1.63;1.30;;;10.80;99.90;10.70;100270.00;;;;4978209;28;101740;-65
2022/06/22 02:10:41;;;;;;;1.60;1.50;;;10.70;99.90;10.70;100258.00;;;;4986531;27;87697;-65
2022/06/22 02:13:28;;;;;;;1.70;1.60;;;10.70;99.90;10.60;100270.00;;;;5018224;27;88347;-66
2022/06/22 02:16:18;;;;;;;1.53;1.43;;;10.70;99.90;10.60;100282.00;;;;5008659;27;87807;-66
2022/06/22 02:18:56;;;;;;;1.60;1.50;;;10.60;99.90;10.50;100274.00;;;;4990054;27;99838;-65
2022/06/22 02:21:50;;;;;;;1.73;1.60;;;10.60;99.90;10.50;100282.00;;;;5001513;27;87824;-65
2022/06/22 02:24:34;;;;;;;1.50;1.40;;;10.50;99.90;10.50;100291.00;;;;4975166;28;88217;-67
2022/06/22 02:27:16;;;;;;;2.17;1.80;;;10.50;99.90;10.50;100293.00;;;;4995168;27;106091;-65
2022/06/22 02:29:57;;;;;;;1.87;1.73;;;10.50;99.90;10.40;100293.00;;;;4996448;27;90401;-66
2022/06/22 02:32:41;;;;;;;2.67;1.80;;;10.50;99.90;10.40;100283.00;;;;5019070;27;99338;-65
2022/06/22 02:35:10;;;;;;;1.40;1.30;;;10.40;99.90;10.40;100275.00;;;;4994271;28;109582;-66
2022/06/22 02:37:50;;;;;;;1.50;1.40;;;10.40;99.90;10.40;100276.00;;;;4979467;28;88871;-66
2022/06/22 02:40:23;;;;;;;2.00;1.90;;;10.40;99.90;10.40;100283.00;;;;4980877;27;88048;-66
2022/06/22 02:45:34;;;;;;;2.13;1.60;;;10.30;99.90;10.30;100281.00;;;;5015185;27;88022;-65
2022/06/22 02:48:27;;;;;;;1.40;1.30;;;10.30;99.90;10.30;100268.00;;;;5017564;27;87924;-65
2022/06/22 02:51:13;;;;;;;1.50;1.33;;;10.30;99.90;10.30;100267.00;;;;4992922;28;87592;-66
2022/06/22 02:53:41;;;;;;;2.03;1.90;;;10.30;99.90;10.30;100266.00;;;;4998521;28;86884;-65
2022/06/22 02:56:17;;;;;;;1.77;1.67;;;10.30;99.90;10.20;100266.00;;;;4995503;27;88592;-65
2022/06/22 02:58:45;;;;;;;1.80;1.57;;;10.30;99.90;10.20;100250.00;;;;4976511;28;88095;-66
2022/06/22 03:01:16;;;;;;;2.07;1.40;;;10.20;99.90;10.20;100253.00;;;;5001649;27;88606;-65
2022/06/22 03:03:56;;;;;;;1.83;1.20;;;10.20;99.90;10.10;100252.00;;;;5004391;27;88042;-66
2022/06/22 03:06:36;;;;;;;2.07;1.83;;;10.20;99.90;10.10;100254.00;;;;4998423;28;87956;-66
2022/06/22 03:09:05;;;;;;;1.77;1.67;;;10.20;99.90;10.10;100249.00;;;;4995015;28;87932;-65
2022/06/22 03:11:33;;;;;;;2.43;1.50;;;10.20;99.90;10.20;100244.00;;;;5001032;27;102639;-65
2022/06/22 03:14:19;;;;;;;2.20;1.70;;;10.20;99.90;10.20;100243.00;;;;4997124;28;88007;-66
2022/06/22 03:16:53;;;;;;;2.97;1.37;;;10.30;99.90;10.30;100245.00;;;;4995947;27;89236;-65
2022/06/22 03:19:54;;;;;;;1.27;1.27;;;10.30;99.90;10.30;100245.00;;;;4995676;28;87039;-65
2022/06/22 03:22:36;;;;;;;1.00;1.00;;;10.30;99.90;10.30;100249.00;;;;4985329;27;102697;-65
2022/06/22 03:25:08;;;;;;;5.60;1.93;;;10.30;99.90;10.30;100246.00;;;;5013226;27;87937;-66
2022/06/22 03:27:41;;;;;;;1.73;1.40;;;10.30;99.90;10.30;100243.00;;;;4978297;28;106748;-66
2022/06/22 03:30:15;;;;;;;3.00;1.67;;;10.30;99.90;10.30;100245.00;;;;4992487;27;94650;-65
2022/06/22 03:33:03;;;;;;;2.50;1.50;;;10.50;99.90;10.40;100262.00;;;;4995620;28;87899;-66
2022/06/22 03:35:38;;;;;;;1.97;1.87;;;10.40;99.90;10.40;100255.00;;;;4979439;28;94595;-65
2022/06/22 03:38:22;;;;;;;2.33;1.93;;;10.40;99.90;10.50;100259.00;;;;4979976;28;88252;-65
2022/06/22 03:40:57;;;;;;;1.87;1.77;;;10.40;99.90;10.50;100248.00;;;;4996153;27;88966;-65
2022/06/22 03:43:45;;;;;;;2.53;2.13;;;10.50;99.90;10.50;100247.00;;;;4981356;28;87574;-66
2022/06/22 03:46:22;;;;;;;1.40;1.30;;;10.50;99.90;10.60;100253.00;;;;5007806;27;86840;-65
2022/06/22 03:49:08;;;;;;;2.20;1.73;;;10.50;99.90;10.60;100249.00;;;;4997437;27;87777;-65
2022/06/22 03:51:50;;;;;;;2.17;1.77;;;10.60;99.90;10.70;100248.00;;;;4994844;27;111664;-65
2022/06/22 03:54:31;;;;;;;3.10;1.90;;;10.70;99.90;10.90;100239.00;;;;5014922;27;97834;-65
2022/06/22 03:57:00;;;;;;;1.87;1.67;;;10.80;99.90;11.00;100238.00;;;;5013030;27;87829;-65
2022/06/22 03:59:27;;;;;;;2.97;2.27;;;10.90;99.90;11.10;100235.00;;;;4978697;28;88127;-65
2022/06/22 04:01:56;;;;;;;2.33;2.07;;;11.00;99.90;11.20;100238.00;;;;5014272;27;100434;-65
2022/06/22 04:04:23;;;;;;;2.43;2.07;;;11.20;99.90;11.40;100235.00;;;;4990358;28;89952;-66
2022/06/22 04:06:54;;;;;;;5.30;2.07;;;11.30;99.90;11.50;100243.00;;;;4996728;27;87865;-65
2022/06/22 04:09:22;;;;;;;2.13;1.93;;;11.40;99.90;11.60;100240.00;;;;4962520;27;91295;-65
2022/06/22 04:12:10;;;;;;;2.67;2.23;;;11.50;99.90;11.60;100242.00;;;;5016865;27;108776;-66
2022/06/22 04:14:53;;;;;;;2.83;2.13;;;11.60;99.90;11.70;100244.00;;;;4993757;28;98927;-65
2022/06/22 04:17:29;;;;;;;2.97;2.03;;;11.60;99.90;11.80;100240.00;;;;4996321;28;91417;-66
2022/06/22 04:20:18;;;;;;;4.17;2.30;;;11.70;99.90;11.80;100244.00;;;;4980334;27;88937;-66
2022/06/22 04:22:49;;;;;;;2.30;2.03;;;11.70;99.90;11.90;100241.00;;;;4986128;28;88256;-66
2022/06/22 04:25:31;;;;;;;2.53;2.03;;;11.80;99.90;11.90;100238.00;;;;4993612;27;97755;-66
2022/06/22 04:28:02;;;;;;;2.03;1.73;;;11.90;99.90;12.00;100240.00;;;;4997955;27;87721;-66
2022/06/22 04:30:33;;;;;;;2.10;1.70;;;11.90;99.90;12.00;100247.00;;;;4992330;28;89128;-66
2022/06/22 04:33:07;;;;;;;2.47;2.03;;;12.00;99.90;12.10;100242.00;;;;4977184;28;87892;-65
2022/06/22 04:35:46;;;;;;;2.03;1.67;;;12.00;99.90;12.20;100234.00;;;;5006018;27;110211;-65
2022/06/22 04:38:36;;;;;;;3.30;2.23;;;12.10;99.90;12.30;100236.00;;;;4977658;28;87126;-65
2022/06/22 04:41:36;;;;;;;2.27;2.07;;;12.20;99.90;12.60;100229.00;;;;4989641;27;88059;-65
2022/06/22 04:44:23;;;;;;;3.23;2.20;;;12.40;99.90;12.80;100234.00;;;;4993365;28;103199;-66
2022/06/22 04:46:52;;;;;;;2.77;1.97;;;12.60;99.90;13.00;100242.00;;;;4991801;28;88893;-65
2022/06/22 04:49:30;;;;;;;2.50;1.97;;;12.80;99.90;13.30;100247.00;;;;4979856;28;87709;-66
2022/06/22 04:52:17;;;;;;;2.07;1.83;;;13.10;99.90;13.50;100242.00;;;;5003932;27;88732;-65
2022/06/22 04:54:45;;;;;;;2.80;2.27;;;13.30;99.90;13.70;100245.00;;;;5006170;27;88780;-65
2022/06/22 04:57:25;;;;;;;3.83;1.93;;;13.60;99.90;14.00;100239.00;;;;4996134;27;87847;-66
2022/06/22 04:59:52;;;;;;;1.30;1.20;;;13.80;99.90;14.20;100236.00;;;;4988490;27;87858;-66
2022/06/22 05:02:22;;;;;;;2.00;1.33;;;14.00;99.90;14.40;100240.00;;;;5014289;27;89736;-65
2022/06/22 05:04:56;;;;;;;2.13;1.87;;;14.20;99.90;14.70;100244.00;;;;4988263;28;88836;-65
2022/06/22 05:08:03;;;;;;;1.83;1.73;;;14.50;99.90;14.90;100247.00;;;;5007207;27;102891;-66
2022/06/22 05:10:46;;;;;;;1.50;1.40;;;14.70;99.90;15.20;100247.00;;;;4995588;28;87881;-66
2022/06/22 05:13:17;;;;;;;1.47;1.37;;;15.00;99.90;15.40;100253.00;;;;4994508;28;92583;-64
2022/06/22 05:15:47;;;;;;;5.43;1.73;;;15.20;99.90;15.70;100231.00;;;;4976128;28;90375;-64
2022/06/22 05:18:18;;;;;;;5.72;1.35;;;15.40;99.90;15.90;100234.00;;;;4976577;28;88000;-64
2022/06/22 05:21:04;;;;;;;1.52;1.05;;;15.70;99.90;16.20;100245.00;;;;4984652;27;101308;-65
2022/06/22 05:23:32;;;;;;;1.55;1.45;;;16.00;99.90;16.40;100249.00;;;;5014396;27;87953;-64
2022/06/22 05:26:03;;;;;;;1.48;1.38;;;16.20;99.90;16.70;100250.00;;;;4995763;28;88207;-65
2022/06/22 05:28:35;;;;;;;2.25;1.65;;;16.50;99.90;17.00;100256.00;;;;4998320;27;96820;-65
2022/06/22 05:31:22;;;;;;;2.70;1.42;;;16.70;99.90;17.20;100257.00;;;;5009009;27;87215;-65
2022/06/22 05:33:51;;;;;;;1.67;1.33;;;17.00;99.90;17.50;100259.00;;;;4979584;28;88061;-65
2022/06/22 05:36:21;;;;;;;1.42;1.27;;;17.20;99.60;17.80;100271.00;;;;4988559;28;87644;-65
2022/06/22 05:38:51;;;;;;;5.88;1.73;;;17.50;98.70;18.00;100259.00;;;;4997626;28;90030;-65
2022/06/22 05:41:22;;;;;;;2.92;1.58;;;17.80;97.60;18.30;100248.00;;;;4998746;27;87792;-65
2022/06/22 05:43:49;;;;;;;1.35;1.25;;;18.00;96.80;18.50;100253.00;;;;4977548;28;97938;-65
2022/06/22 05:46:15;;;;;;;0.77;0.77;;;18.30;96.00;18.80;100251.00;;;;5002313;27;115859;-64
2022/06/22 05:48:44;;;;;;;3.13;1.15;;;18.50;95.00;19.00;100255.00;;;;5014394;27;111406;-66
2022/06/22 05:51:20;;;;;;;5.38;1.08;;;18.70;94.60;19.30;100258.00;;;;4987626;28;88161;-64
2022/06/22 05:53:58;;;;;;;1.05;0.98;;;18.90;93.20;19.50;100260.00;;;;4986013;28;87943;-66
2022/06/22 05:56:44;;;;;;;4.50;1.45;;;19.20;92.10;19.70;100266.00;;;;4979633;28;107260;-64
2022/06/22 05:59:45;;;;;;;1.27;0.85;;;19.40;91.30;20.00;100276.00;;;;5017698;27;87884;-64
2022/06/22 06:02:19;;;;;;;1.25;1.15;;;19.70;91.00;20.30;100264.00;;;;5018856;27;87855;-66
2022/06/22 06:05:14;;;;;;;0.90;0.88;;;20.00;90.10;20.60;100267.00;;;;4993378;28;89803;-64
2022/06/22 06:07:46;;;;;;;1.52;0.88;;;20.30;86.20;20.80;100258.00;;;;4995393;27;112636;-64
2022/06/22 06:10:26;;;;;;;3.25;0.90;;;20.50;84.30;21.10;100264.00;;;;5013781;27;88158;-64
2022/06/22 06:13:17;;;;;;;2.55;1.33;;;20.80;84.00;21.40;100273.00;;;;4979104;28;87799;-64
2022/06/22 06:15:44;;;;;;;1.40;1.02;;;21.10;83.20;21.80;100279.00;;;;4992406;27;108422;-64
2022/06/22 06:18:18;;;;;;;2.15;0.77;;;21.40;78.30;22.00;100268.00;;;;4998565;27;100851;-64
2022/06/22 06:20:55;;;;;;;0.88;0.88;;;21.70;75.10;22.20;100265.00;;;;4989473;28;102731;-65
2022/06/22 06:23:31;;;;;;;0.65;0.65;;;21.90;73.20;22.50;100266.00;;;;4979786;28;87381;-64
2022/06/22 06:29:15;;;;;;;0.77;0.77;;;22.40;70.70;23.10;100276.00;;;;5015802;27;87775;-64
2022/06/22 06:32:12;;;;;;;1.58;0.70;;;22.80;69.80;23.30;100272.00;;;;4994452;28;102637;-64
2022/06/22 06:34:46;;;;;;;0.80;0.80;;;23.10;66.00;23.60;100262.00;;;;4980465;27;102173;-64
2022/06/22 06:37:17;;;;;;;0.68;0.68;;;23.30;63.80;23.70;100263.00;;;;4990511;27;110985;-64
2022/06/22 06:39:47;;;;;;;0.77;0.77;;;23.40;60.50;23.80;100260.00;;;;4998012;27;88971;-64
2022/06/22 06:42:28;;;;;;;2.92;1.10;;;23.50;59.40;23.90;100258.00;;;;4999339;27;100244;-64
2022/06/22 06:44:55;;;;;;;0.60;0.60;;;23.60;59.70;24.10;100257.00;;;;5011618;27;87841;-64
2022/06/22 06:47:32;;;;;;;0.77;0.77;;;23.80;57.40;24.20;100257.00;;;;5003941;27;118047;-66
2022/06/22 06:50:13;;;;;;;1.45;1.08;;;23.90;56.20;24.30;100255.00;;;;5017476;27;87148;-66
2022/06/22 06:52:54;;;;;;;0.88;0.70;;;24.10;55.70;24.40;100252.00;;;;4998777;27;88647;-67
2022/06/22 06:55:41;;;;;;;1.17;0.95;;;24.10;55.90;24.60;100252.00;;;;5008767;27;89210;-66
2022/06/22 06:58:18;;;;;;;1.10;0.98;;;24.30;55.70;24.80;100259.00;;;;4993631;27;88728;-65
2022/06/22 07:00:47;;;;;;;0.70;0.70;;;24.40;54.00;24.90;100253.00;;;;4991662;28;88722;-67
2022/06/22 07:03:24;;;;;;;0.95;0.70;;;24.60;53.10;25.10;100249.00;;;;4997934;28;87701;-67
2022/06/22 07:05:50;;;;;;;1.02;0.95;;;24.80;52.90;25.40;100251.00;;;;5006456;27;102652;-67
2022/06/22 07:08:26;;;;;;;0.60;0.60;;;25.00;52.90;25.60;100242.00;;;;4981913;28;109111;-67
2022/06/22 07:11:06;;;;;;;1.17;1.05;;;25.20;52.10;25.70;100261.00;;;;4980040;28;88748;-67
2022/06/22 07:13:44;;;;;;;1.55;1.00;;;25.40;52.20;26.00;100257.00;;;;4978700;28;87812;-66
2022/06/22 07:16:15;;;;;;;0.65;0.60;;;25.60;50.90;26.20;100261.00;;;;5010474;27;99954;-66
2022/06/22 07:18:48;;;;;;;0.95;0.80;;;25.80;50.00;26.40;100251.00;;;;4997095;27;88817;-68
2022/06/22 07:21:34;;;;;;;0.50;0.40;;;26.00;50.20;26.70;100258.00;;;;4997277;27;108826;-69
2022/06/22 07:24:04;;;;;;;1.30;0.77;;;26.30;50.10;27.10;100257.00;;;;4990048;28;89100;-69
2022/06/22 07:26:47;;;;;;;0.50;0.50;;;26.70;48.60;27.30;100254.00;;;;4996316;28;89630;-70
2022/06/22 07:29:31;;;;;;;0.55;0.52;;;26.90;48.00;27.30;100264.00;;;;5007223;27;100820;-69
2022/06/22 07:32:39;;;;;;;0.65;0.65;;;27.00;47.60;27.50;100266.00;;;;4991905;27;106424;-69
2022/06/22 07:35:08;;;;;;;1.67;0.50;;;27.20;47.60;27.80;100264.00;;;;4997689;27;87661;-70
2022/06/22 07:37:41;;;;;;;1.85;0.35;;;27.40;47.20;28.00;100270.00;;;;5017551;27;87641;-69
2022/06/22 07:40:08;;;;;;;0.47;0.47;;;27.70;46.10;28.10;100269.00;;;;4996086;27;88289;-69
2022/06/22 07:42:34;;;;;;;0.32;0.32;;;27.80;45.00;28.20;100262.00;;;;4994067;28;89092;-69
2022/06/22 07:45:00;;;;;;;0.68;0.68;;;27.90;44.70;28.30;100255.00;;;;4996345;27;109016;-69
2022/06/22 07:47:36;;;;;;;1.13;0.45;;;28.00;44.00;28.30;100255.00;;;;4976513;27;108892;-70
2022/06/22 07:50:21;;;;;;;2.15;0.85;;;28.10;43.30;28.50;100268.00;;;;4996223;27;89203;-69
2022/06/22 07:52:58;;;;;;;0.98;0.88;;;28.20;43.60;28.60;100257.00;;;;4997529;27;88704;-69
2022/06/22 07:55:55;;;;;;;0.85;0.85;;;28.30;42.70;28.70;100259.00;;;;4996727;27;87553;-68
2022/06/22 07:58:47;;;;;;;0.70;0.70;;;28.40;41.60;28.60;100256.00;;;;4965321;28;103872;-71
2022/06/22 08:01:19;;;;;;;0.40;0.40;;;28.40;41.60;28.70;100255.00;;;;4979953;28;107716;-70
2022/06/22 08:03:56;;;;;;;0.82;0.50;;;28.40;42.20;28.90;100263.00;;;;4977272;28;89438;-70
2022/06/22 08:06:29;;;;;;;2.72;0.93;;;28.80;42.70;29.20;100262.00;;;;4978841;28;103170;-69
2022/06/22 08:09:03;;;;;;;1.17;1.08;;;28.80;42.50;29.60;100255.00;;;;4978462;28;86966;-68
2022/06/22 08:12:21;;;;;;;0.70;0.70;;;29.20;42.30;29.90;100262.00;;;;4991192;27;88557;-69
2022/06/22 08:14:52;;;;;;;0.65;0.55;;;29.50;41.90;30.20;100259.00;;;;4970529;27;87740;-68
2022/06/22 08:17:49;;;;;;;0.85;0.57;;;29.80;41.60;30.50;100258.00;;;;4998126;27;89046;-68
2022/06/22 08:20:20;;;;;;;0.60;0.60;;;30.10;40.50;30.60;100253.00;;;;4992938;27;89581;-73
2022/06/22 08:22:48;;;;;;;0.47;0.45;;;30.30;40.30;30.80;100242.00;;;;5006835;27;103635;-72
2022/06/22 08:25:17;;;;;;;0.73;0.70;;;30.50;40.00;31.10;100252.00;;;;4997008;27;106194;-69
2022/06/22 08:27:46;;;;;;;1.05;0.93;;;30.70;38.70;31.10;100240.00;;;;4996870;27;87997;-69
2022/06/22 08:30:14;;;;;;;0.52;0.43;;;30.80;38.30;31.10;100241.00;;;;5010217;27;109043;-69
2022/06/22 08:33:02;;;;;;;0.50;0.45;;;30.80;38.30;31.10;100226.00;;;;5009314;27;95921;-69
2022/06/22 08:35:42;;;;;;;0.47;0.47;;;30.80;38.40;31.20;100233.00;;;;5009736;27;87735;-69
2022/06/22 08:38:38;;;;;;;0.70;0.70;;;30.90;38.20;31.30;100243.00;;;;4977157;28;87984;-69
2022/06/22 08:41:29;;;;;;;1.75;0.68;;;31.00;38.20;31.50;100226.00;;;;4969680;27;87766;-70
2022/06/22 08:44:10;;;;;;;0.50;0.50;;;31.10;37.70;31.60;100222.00;;;;5004839;27;89303;-70
2022/06/22 08:46:58;;;;;;;0.88;0.68;;;31.20;37.50;31.70;100227.00;;;;5002004;27;87842;-69
2022/06/22 08:50:11;;;;;;;0.30;0.30;;;31.40;37.40;31.90;100232.00;;;;4997220;27;88417;-70
2022/06/22 08:53:03;;;;;;;1.13;0.77;;;31.50;37.40;32.10;100234.00;;;;5003295;27;87762;-71
2022/06/22 08:56:07;;;;;;;0.70;0.70;;;31.70;37.00;32.20;100226.00;;;;5016058;27;87882;-69
2022/06/22 08:59:00;;;;;;;1.25;0.75;;;31.90;36.20;32.30;100232.00;;;;4987573;28;109273;-71
2022/06/22 09:02:07;;;;;;;0.60;0.60;;;31.90;35.80;32.30;100241.00;;;;4995764;27;87892;-69
2022/06/22 09:04:47;;;;;;;0.75;0.52;;;32.00;35.20;32.30;100240.00;;;;4995919;28;86982;-69
2022/06/22 09:07:52;;;;;;;0.50;0.50;;;32.00;35.10;32.40;100221.00;;;;4990760;27;88123;-69
2022/06/22 09:10:52;;;;;;;1.38;0.80;;;32.00;35.10;32.40;100227.00;;;;4983955;27;88104;-72
2022/06/22 09:13:33;;;;;;;2.22;0.90;;;32.10;35.30;32.50;100221.00;;;;5013618;27;92773;-71
2022/06/22 09:16:25;;;;;;;0.98;0.80;;;32.10;35.10;32.50;100219.00;;;;5015643;27;87855;-71
2022/06/22 09:19:15;;;;;;;1.23;1.13;;;32.20;34.80;32.60;100230.00;;;;4996328;27;89874;-69
2022/06/22 09:21:58;;;;;;;0.60;0.55;;;32.20;34.80;32.70;100236.00;;;;5009161;27;111424;-70
2022/06/22 09:24:39;;;;;;;0.63;0.63;;;32.30;34.90;32.70;100227.00;;;;5007523;27;102682;-69
2022/06/22 09:27:23;;;;;;;1.48;1.38;;;32.40;34.80;32.80;100222.00;;;;4992814;28;88376;-70
2022/06/22 09:30:29;;;;;;;0.82;0.50;;;32.40;34.60;32.50;100220.00;;;;4991849;27;109781;-69
2022/06/22 09:33:32;;;;;;;0.77;0.75;;;32.30;33.50;32.40;100214.00;;;;5001698;27;87163;-69
2022/06/22 09:36:20;;;;;;;0.45;0.45;;;32.10;34.20;32.50;100215.00;;;;5006606;27;87592;-69
2022/06/22 09:39:10;;;;;;;0.70;0.70;;;32.20;34.20;32.60;100218.00;;;;4981441;27;99712;-70
2022/06/22 09:42:32;;;;;;;1.45;0.47;;;32.20;34.20;32.80;100210.00;;;;4992749;27;108715;-69
2022/06/22 09:45:03;;;;;;;1.95;0.70;;;32.40;34.30;33.10;100205.00;;;;4995687;27;90461;-72
2022/06/22 09:47:52;;;;;;;0.65;0.60;;;32.50;34.10;33.30;100216.00;;;;5015047;27;87519;-70
2022/06/22 09:50:48;;;;;;;0.85;0.40;;;32.80;33.70;33.30;100213.00;;;;4958291;28;87896;-69
2022/06/22 09:53:42;;;;;;;1.08;0.50;;;32.90;32.80;33.30;100229.00;;;;5006983;27;88152;-69
2022/06/22 09:56:39;;;;;;;0.68;0.50;;;32.90;32.60;33.50;100223.00;;;;5001413;27;87965;-71
2022/06/22 09:59:49;;;;;;;0.52;0.52;;;33.00;32.30;32.80;100231.00;;;;4997981;27;87809;-69
2022/06/22 10:02:58;;;;;;;0.40;0.40;;;32.70;30.60;32.50;100234.00;;;;4893383;28;87593;-69
2022/06/22 10:05:45;;;;;;;2.72;0.80;;;32.20;32.10;32.60;100238.00;;;;4893619;28;88108;-70
2022/06/22 10:08:29;;;;;;;4.28;0.63;;;32.10;32.30;32.80;100232.00;;;;4964029;28;87624;-70
2022/06/22 10:11:22;;;;;;;1.00;0.52;;;32.20;32.90;33.30;100232.00;;;;4978074;28;89234;-70
2022/06/22 10:14:17;;;;;;;0.60;0.55;;;32.60;32.60;33.80;100233.00;;;;4996107;27;101385;-69
2022/06/22 10:17:03;;;;;;;0.70;0.70;;;33.00;32.40;34.10;100231.00;;;;5020453;27;87904;-69
2022/06/22 10:19:50;;;;;;;1.15;0.85;;;33.30;31.80;34.40;100238.00;;;;4998883;27;87920;-70
2022/06/22 10:22:49;;;;;;;0.40;0.40;;;33.60;31.80;34.70;100243.00;;;;5011865;27;87870;-70
2022/06/22 10:25:36;;;;;;;0.70;0.50;;;33.90;31.80;35.10;100229.00;;;;4997935;27;103867;-70
2022/06/22 10:28:40;;;;;;;0.85;0.35;;;34.30;31.50;35.40;100235.00;;;;5017130;27;87691;-70
2022/06/22 10:31:50;;;;;;;1.83;1.05;;;34.60;31.10;35.00;100246.00;;;;5018397;27;87058;-70
2022/06/22 10:34:34;;;;;;;0.90;0.65;;;34.70;29.20;34.50;100244.00;;;;5017288;27;93988;-69
2022/06/22 10:37:32;;;;;;;0.50;0.50;;;34.10;29.60;34.40;100247.00;;;;4982810;27;87907;-69
2022/06/22 10:46:34;;;;;;;2.08;0.70;;;33.80;30.30;34.70;100231.00;;;;5015417;27;87584;-71
2022/06/22 10:49:30;;;;;;;0.60;0.40;;;33.90;30.80;34.90;100232.00;;;;4977352;28;87823;-69
2022/06/22 10:52:42;;;;;;;0.45;0.45;;;34.10;30.20;34.70;100229.00;;;;4999421;27;87938;-70
2022/06/22 10:55:34;;;;;;;2.15;0.90;;;34.10;29.90;34.50;100223.00;;;;4997810;28;89193;-69
2022/06/22 10:58:37;;;;;;;0.43;0.43;;;33.90;30.40;34.40;100223.00;;;;4973526;28;94581;-69
2022/06/22 11:01:27;;;;;;;2.45;0.85;;;33.90;30.60;34.50;100219.00;;;;4997235;27;87419;-70
2022/06/22 11:04:24;;;;;;;0.68;0.68;;;33.80;30.70;34.90;100219.00;;;;4997079;28;87722;-70
2022/06/22 11:07:00;;;;;;;2.30;0.88;;;34.00;30.60;35.30;100209.00;;;;4997461;28;87924;-70
2022/06/22 11:10:27;;;;;;;0.70;0.70;;;34.40;30.60;35.80;100211.00;;;;4977520;28;104276;-70
2022/06/22 11:13:30;;;;;;;0.82;0.73;;;34.80;30.40;36.30;100215.00;;;;4992193;27;88044;-69
2022/06/22 11:16:32;;;;;;;0.45;0.45;;;35.40;30.10;36.60;100209.00;;;;4996276;28;88826;-70
2022/06/22 11:19:49;;;;;;;3.70;0.77;;;35.70;29.80;36.80;100208.00;;;;4978321;28;108672;-71
2022/06/22 11:22:24;;;;;;;1.63;0.70;;;35.90;29.40;37.00;100212.00;;;;4982254;27;103501;-70
2022/06/22 11:25:07;;;;;;;0.40;0.40;;;36.10;29.50;37.30;100213.00;;;;5017059;27;87815;-70
2022/06/22 11:31:19;;;;;;;0.90;0.60;;;36.60;29.30;37.90;100232.00;;;;4978676;28;87293;-69
2022/06/22 11:34:13;;;;;;;0.45;0.45;;;37.00;28.90;37.70;100236.00;;;;5005404;27;99985;-70
2022/06/22 11:37:08;;;;;;;2.15;0.45;;;37.00;28.60;37.80;100234.00;;;;5015763;27;87645;-70
2022/06/22 11:40:04;;;;;;;0.45;0.40;;;37.00;28.70;38.10;100242.00;;;;4996718;27;88781;-72
2022/06/22 11:43:13;;;;;;;0.68;0.60;;;37.20;28.20;37.80;100236.00;;;;5016130;27;87889;-72
2022/06/22 11:46:23;;;;;;;0.32;0.32;;;37.20;28.00;37.30;100234.00;;;;5013350;27;87608;-72
2022/06/22 11:49:36;;;;;;;1.30;1.10;;;36.80;28.20;37.20;100234.00;;;;4960815;28;91994;-68
2022/06/22 11:52:51;;;;;;;0.50;0.50;;;36.60;28.20;37.40;100233.00;;;;4949723;27;103996;-72
2022/06/22 11:55:28;;;;;;;0.75;0.60;;;36.60;28.40;37.30;100235.00;;;;5002138;27;87562;-68
2022/06/22 11:58:37;;;;;;;0.68;0.65;;;36.70;27.80;36.90;100230.00;;;;5005342;27;87733;-69
2022/06/22 12:01:24;;;;;;;0.30;0.30;;;36.40;27.10;36.60;100235.00;;;;4963390;27;87169;-69
2022/06/22 12:04:22;;;;;;;0.80;0.50;;;36.10;27.90;36.30;100223.00;;;;4976500;28;103426;-69
2022/06/22 12:07:32;;;;;;;0.80;0.70;;;35.80;28.00;35.80;100236.00;;;;5006822;27;99684;-70
2022/06/22 12:10:49;;;;;;;1.70;0.38;;;35.50;28.50;35.50;100225.00;;;;4992595;27;103664;-69